sensor_id;sensor_type;location;lat;lon;timestamp;P1;durP1;ratioP1;P2;durP2;ratioP2
6207;SDS011;3137;51.550;7.060;2022-09-23T00:00:17;7.67;;;7.27;;
6207;SDS011;3137;51.550;7.060;2022-09-23T00:02:46;7.10;;;6.87;;
6207;SDS011;3137;51.550;7.060;2022-09-23T00:05:14;7.50;;;7.30;;
6207;SDS011;3137;51.550;7.060;2022-09-23T00:07:40;11.33;;;7.97;;
6207;SDS011;3137;51.550;7.060;2022-09-23T00:10:06;6.97;;;6.37;;
6207;SDS011;3137;51.550;7.060;2022-09-23T00:12:33;7.10;;;6.83;;
6207;SDS011;3137;51.550;7.060;2022-09-23T00:15:00;8.00;;;7.40;;
6207;SDS011;3137;51.550;7.060;2022-09-23T00:17:27;8.07;;;7.30;;
6207;SDS011;3137;51.550;7.060;2022-09-23T00:19:53;7.27;;;7.07;;
6207;SDS011;3137;51.550;7.060;2022-09-23T00:22:20;7.60;;;7.10;;
6207;SDS011;3137;51.550;7.060;2022-09-23T00:24:47;7.77;;;7.37;;
6207;SDS011;3137;51.550;7.060;2022-09-23T00:27:13;7.90;;;7.43;;
6207;SDS011;3137;51.550;7.060;2022-09-23T00:29:39;7.73;;;7.20;;
6207;SDS011;3137;51.550;7.060;2022-09-23T00:32:06;8.57;;;8.17;;
6207;SDS011;3137;51.550;7.060;2022-09-23T00:34:32;8.73;;;8.03;;
6207;SDS011;3137;51.550;7.060;2022-09-23T00:36:58;14.30;;;7.47;;
6207;SDS011;3137;51.550;7.060;2022-09-23T00:39:25;8.17;;;7.73;;
6207;SDS011;3137;51.550;7.060;2022-09-23T00:41:51;7.17;;;6.90;;
6207;SDS011;3137;51.550;7.060;2022-09-23T00:47:50;7.93;;;7.33;;
6207;SDS011;3137;51.550;7.060;2022-09-23T00:52:35;6.27;;;6.17;;
6207;SDS011;3137;51.550;7.060;2022-09-23T00:55:05;8.00;;;7.33;;
6207;SDS011;3137;51.550;7.060;2022-09-23T00:57:35;7.07;;;6.57;;
6207;SDS011;3137;51.550;7.060;2022-09-23T01:00:04;7.73;;;7.13;;
6207;SDS011;3137;51.550;7.060;2022-09-23T01:02:33;6.50;;;6.40;;
6207;SDS011;3137;51.550;7.060;2022-09-23T01:05:00;6.40;;;6.20;;
6207;SDS011;3137;51.550;7.060;2022-09-23T01:07:28;6.90;;;6.70;;
6207;SDS011;3137;51.550;7.060;2022-09-23T01:09:55;7.07;;;6.87;;
6207;SDS011;3137;51.550;7.060;2022-09-23T01:12:27;5.97;;;5.77;;
6207;SDS011;3137;51.550;7.060;2022-09-23T01:15:13;6.70;;;6.33;;
6207;SDS011;3137;51.550;7.060;2022-09-23T01:20:40;7.27;;;6.93;;
6207;SDS011;3137;51.550;7.060;2022-09-23T01:28:58;6.90;;;6.50;;
6207;SDS011;3137;51.550;7.060;2022-09-23T01:31:51;5.97;;;5.53;;
6207;SDS011;3137;51.550;7.060;2022-09-23T01:37:24;6.60;;;6.00;;
6207;SDS011;3137;51.550;7.060;2022-09-23T01:40:04;6.30;;;6.10;;
6207;SDS011;3137;51.550;7.060;2022-09-23T01:42:37;6.87;;;6.47;;
6207;SDS011;3137;51.550;7.060;2022-09-23T01:48:06;6.83;;;6.63;;
6207;SDS011;3137;51.550;7.060;2022-09-23T01:50:41;14.83;;;6.20;;
6207;SDS011;3137;51.550;7.060;2022-09-23T01:53:29;6.23;;;6.07;;
6207;SDS011;3137;51.550;7.060;2022-09-23T01:56:46;6.33;;;6.03;;
6207;SDS011;3137;51.550;7.060;2022-09-23T01:59:13;6.53;;;6.20;;
6207;SDS011;3137;51.550;7.060;2022-09-23T02:01:52;5.97;;;5.63;;
6207;SDS011;3137;51.550;7.060;2022-09-23T02:04:27;6.43;;;6.27;;
6207;SDS011;3137;51.550;7.060;2022-09-23T02:06:58;5.83;;;5.63;;
6207;SDS011;3137;51.550;7.060;2022-09-23T02:09:32;7.17;;;6.87;;
6207;SDS011;3137;51.550;7.060;2022-09-23T02:12:03;6.40;;;6.20;;
6207;SDS011;3137;51.550;7.060;2022-09-23T02:14:39;5.93;;;5.67;;
6207;SDS011;3137;51.550;7.060;2022-09-23T02:17:14;6.17;;;5.70;;
6207;SDS011;3137;51.550;7.060;2022-09-23T02:19:46;5.80;;;5.70;;
6207;SDS011;3137;51.550;7.060;2022-09-23T02:22:29;6.37;;;5.57;;
6207;SDS011;3137;51.550;7.060;2022-09-23T02:24:59;5.20;;;5.10;;
6207;SDS011;3137;51.550;7.060;2022-09-23T02:35:30;6.43;;;6.33;;
6207;SDS011;3137;51.550;7.060;2022-09-23T02:41:37;6.00;;;5.90;;
6207;SDS011;3137;51.550;7.060;2022-09-23T02:43:53;4.67;;;4.57;;
6207;SDS011;3137;51.550;7.060;2022-09-23T02:46:32;5.60;;;5.50;;
6207;SDS011;3137;51.550;7.060;2022-09-23T02:49:04;5.13;;;5.03;;
6207;SDS011;3137;51.550;7.060;2022-09-23T02:51:45;6.33;;;6.00;;
6207;SDS011;3137;51.550;7.060;2022-09-23T02:54:13;6.53;;;6.33;;
6207;SDS011;3137;51.550;7.060;2022-09-23T02:56:42;6.63;;;6.33;;
6207;SDS011;3137;51.550;7.060;2022-09-23T02:59:09;6.53;;;6.30;;
6207;SDS011;3137;51.550;7.060;2022-09-23T03:07:13;6.17;;;5.87;;
6207;SDS011;3137;51.550;7.060;2022-09-23T03:10:06;6.70;;;6.33;;
6207;SDS011;3137;51.550;7.060;2022-09-23T03:12:46;6.37;;;6.03;;
6207;SDS011;3137;51.550;7.060;2022-09-23T03:15:36;5.93;;;5.67;;
6207;SDS011;3137;51.550;7.060;2022-09-23T03:18:14;5.47;;;5.27;;
6207;SDS011;3137;51.550;7.060;2022-09-23T03:20:49;5.57;;;5.40;;
6207;SDS011;3137;51.550;7.060;2022-09-23T03:23:23;5.27;;;5.17;;
6207;SDS011;3137;51.550;7.060;2022-09-23T03:25:54;5.53;;;5.30;;
6207;SDS011;3137;51.550;7.060;2022-09-23T03:28:23;4.73;;;4.63;;
6207;SDS011;3137;51.550;7.060;2022-09-23T03:30:50;5.73;;;5.33;;
6207;SDS011;3137;51.550;7.060;2022-09-23T03:33:20;5.63;;;5.40;;
6207;SDS011;3137;51.550;7.060;2022-09-23T03:35:56;6.43;;;6.10;;
6207;SDS011;3137;51.550;7.060;2022-09-23T03:38:46;5.50;;;5.40;;
6207;SDS011;3137;51.550;7.060;2022-09-23T03:41:22;5.13;;;5.03;;
6207;SDS011;3137;51.550;7.060;2022-09-23T03:43:56;5.73;;;5.40;;
6207;SDS011;3137;51.550;7.060;2022-09-23T03:46:27;6.33;;;5.97;;
6207;SDS011;3137;51.550;7.060;2022-09-23T03:49:28;6.13;;;5.50;;
6207;SDS011;3137;51.550;7.060;2022-09-23T03:51:55;5.47;;;5.37;;
6207;SDS011;3137;51.550;7.060;2022-09-23T03:54:21;5.30;;;5.20;;
6207;SDS011;3137;51.550;7.060;2022-09-23T03:56:48;6.63;;;5.90;;
6207;SDS011;3137;51.550;7.060;2022-09-23T03:59:14;6.70;;;6.30;;
6207;SDS011;3137;51.550;7.060;2022-09-23T04:01:41;6.53;;;6.23;;
6207;SDS011;3137;51.550;7.060;2022-09-23T04:04:08;6.03;;;5.70;;
6207;SDS011;3137;51.550;7.060;2022-09-23T04:06:35;6.47;;;6.07;;
6207;SDS011;3137;51.550;7.060;2022-09-23T04:09:01;6.30;;;6.20;;
6207;SDS011;3137;51.550;7.060;2022-09-23T04:11:28;7.03;;;6.70;;
6207;SDS011;3137;51.550;7.060;2022-09-23T04:13:54;6.60;;;6.30;;
6207;SDS011;3137;51.550;7.060;2022-09-23T04:16:21;5.87;;;5.57;;
6207;SDS011;3137;51.550;7.060;2022-09-23T04:18:49;6.23;;;6.03;;
6207;SDS011;3137;51.550;7.060;2022-09-23T04:21:15;5.97;;;5.77;;
6207;SDS011;3137;51.550;7.060;2022-09-23T04:23:41;7.07;;;6.60;;
6207;SDS011;3137;51.550;7.060;2022-09-23T04:26:08;7.03;;;6.37;;
6207;SDS011;3137;51.550;7.060;2022-09-23T04:28:34;6.33;;;6.13;;
6207;SDS011;3137;51.550;7.060;2022-09-23T04:31:04;6.00;;;5.70;;
6207;SDS011;3137;51.550;7.060;2022-09-23T04:33:34;18.40;;;6.53;;
6207;SDS011;3137;51.550;7.060;2022-09-23T04:36:01;5.67;;;5.57;;
6207;SDS011;3137;51.550;7.060;2022-09-23T04:38:27;6.43;;;6.10;;
6207;SDS011;3137;51.550;7.060;2022-09-23T04:40:53;5.90;;;5.60;;
6207;SDS011;3137;51.550;7.060;2022-09-23T04:43:20;5.20;;;5.00;;
6207;SDS011;3137;51.550;7.060;2022-09-23T04:46:02;7.20;;;6.90;;
6207;SDS011;3137;51.550;7.060;2022-09-23T04:48:30;5.70;;;5.60;;
6207;SDS011;3137;51.550;7.060;2022-09-23T04:51:00;6.70;;;6.13;;
6207;SDS011;3137;51.550;7.060;2022-09-23T04:53:38;6.90;;;6.40;;
6207;SDS011;3137;51.550;7.060;2022-09-23T04:56:07;6.03;;;5.83;;
6207;SDS011;3137;51.550;7.060;2022-09-23T04:58:35;5.37;;;5.20;;
6207;SDS011;3137;51.550;7.060;2022-09-23T05:01:15;6.53;;;6.33;;
6207;SDS011;3137;51.550;7.060;2022-09-23T05:03:44;7.10;;;6.60;;
6207;SDS011;3137;51.550;7.060;2022-09-23T05:06:11;6.63;;;6.13;;
6207;SDS011;3137;51.550;7.060;2022-09-23T05:08:40;5.57;;;5.37;;
6207;SDS011;3137;51.550;7.060;2022-09-23T05:11:07;6.03;;;5.90;;
6207;SDS011;3137;51.550;7.060;2022-09-23T05:13:34;6.27;;;6.07;;
6207;SDS011;3137;51.550;7.060;2022-09-23T05:16:04;5.67;;;5.47;;
6207;SDS011;3137;51.550;7.060;2022-09-23T05:18:33;6.70;;;6.50;;
6207;SDS011;3137;51.550;7.060;2022-09-23T05:21:01;6.23;;;5.93;;
6207;SDS011;3137;51.550;7.060;2022-09-23T05:23:28;6.17;;;5.70;;
6207;SDS011;3137;51.550;7.060;2022-09-23T05:25:56;6.30;;;5.73;;
6207;SDS011;3137;51.550;7.060;2022-09-23T05:28:27;12.90;;;6.67;;
6207;SDS011;3137;51.550;7.060;2022-09-23T05:31:04;7.20;;;6.90;;
6207;SDS011;3137;51.550;7.060;2022-09-23T05:33:34;6.83;;;6.57;;
6207;SDS011;3137;51.550;7.060;2022-09-23T05:36:02;7.30;;;6.67;;
6207;SDS011;3137;51.550;7.060;2022-09-23T05:38:30;7.43;;;7.00;;
6207;SDS011;3137;51.550;7.060;2022-09-23T05:40:57;7.03;;;6.73;;
6207;SDS011;3137;51.550;7.060;2022-09-23T05:43:25;5.97;;;5.87;;
6207;SDS011;3137;51.550;7.060;2022-09-23T05:46:05;7.43;;;7.00;;
6207;SDS011;3137;51.550;7.060;2022-09-23T05:48:34;7.33;;;7.03;;
6207;SDS011;3137;51.550;7.060;2022-09-23T05:51:01;8.60;;;8.13;;
6207;SDS011;3137;51.550;7.060;2022-09-23T05:53:28;6.53;;;6.23;;
6207;SDS011;3137;51.550;7.060;2022-09-23T05:55:56;6.80;;;6.20;;
6207;SDS011;3137;51.550;7.060;2022-09-23T05:58:22;8.53;;;7.57;;
6207;SDS011;3137;51.550;7.060;2022-09-23T06:00:50;6.53;;;6.23;;
6207;SDS011;3137;51.550;7.060;2022-09-23T06:03:17;7.37;;;6.73;;
6207;SDS011;3137;51.550;7.060;2022-09-23T06:05:45;7.47;;;7.07;;
6207;SDS011;3137;51.550;7.060;2022-09-23T06:08:13;9.50;;;7.50;;
6207;SDS011;3137;51.550;7.060;2022-09-23T06:10:41;7.37;;;6.90;;
6207;SDS011;3137;51.550;7.060;2022-09-23T06:13:09;9.27;;;7.87;;
6207;SDS011;3137;51.550;7.060;2022-09-23T06:15:36;7.80;;;7.20;;
6207;SDS011;3137;51.550;7.060;2022-09-23T06:18:04;8.20;;;7.50;;
6207;SDS011;3137;51.550;7.060;2022-09-23T06:20:32;8.00;;;7.60;;
6207;SDS011;3137;51.550;7.060;2022-09-23T06:23:06;10.70;;;6.70;;
6207;SDS011;3137;51.550;7.060;2022-09-23T06:25:36;9.80;;;6.83;;
6207;SDS011;3137;51.550;7.060;2022-09-23T06:28:05;9.00;;;8.17;;
6207;SDS011;3137;51.550;7.060;2022-09-23T06:30:37;8.03;;;7.20;;
6207;SDS011;3137;51.550;7.060;2022-09-23T06:33:04;9.37;;;8.53;;
6207;SDS011;3137;51.550;7.060;2022-09-23T06:35:31;7.67;;;7.17;;
6207;SDS011;3137;51.550;7.060;2022-09-23T06:37:58;8.20;;;7.83;;
6207;SDS011;3137;51.550;7.060;2022-09-23T06:40:28;12.33;;;8.10;;
6207;SDS011;3137;51.550;7.060;2022-09-23T06:42:57;8.80;;;8.10;;
6207;SDS011;3137;51.550;7.060;2022-09-23T06:45:25;8.77;;;7.93;;
6207;SDS011;3137;51.550;7.060;2022-09-23T06:47:52;8.43;;;7.57;;
6207;SDS011;3137;51.550;7.060;2022-09-23T06:50:24;8.23;;;7.73;;
6207;SDS011;3137;51.550;7.060;2022-09-23T06:52:52;12.37;;;8.63;;
6207;SDS011;3137;51.550;7.060;2022-09-23T06:55:24;9.53;;;8.73;;
6207;SDS011;3137;51.550;7.060;2022-09-23T06:57:52;13.97;;;8.63;;
6207;SDS011;3137;51.550;7.060;2022-09-23T07:00:19;9.70;;;6.63;;
6207;SDS011;3137;51.550;7.060;2022-09-23T07:02:46;8.13;;;7.63;;
6207;SDS011;3137;51.550;7.060;2022-09-23T07:05:12;8.47;;;7.90;;
6207;SDS011;3137;51.550;7.060;2022-09-23T07:07:41;7.97;;;7.57;;
6207;SDS011;3137;51.550;7.060;2022-09-23T07:10:09;10.93;;;7.47;;
6207;SDS011;3137;51.550;7.060;2022-09-23T07:12:36;8.37;;;7.83;;
6207;SDS011;3137;51.550;7.060;2022-09-23T07:15:03;12.13;;;7.60;;
6207;SDS011;3137;51.550;7.060;2022-09-23T07:17:30;8.60;;;7.77;;
6207;SDS011;3137;51.550;7.060;2022-09-23T07:19:56;8.77;;;6.60;;
6207;SDS011;3137;51.550;7.060;2022-09-23T07:22:24;12.67;;;8.37;;
6207;SDS011;3137;51.550;7.060;2022-09-23T07:24:51;11.47;;;8.93;;
6207;SDS011;3137;51.550;7.060;2022-09-23T07:27:22;8.07;;;7.20;;
6207;SDS011;3137;51.550;7.060;2022-09-23T07:29:50;8.03;;;7.53;;
6207;SDS011;3137;51.550;7.060;2022-09-23T07:32:18;7.87;;;7.33;;
6207;SDS011;3137;51.550;7.060;2022-09-23T07:34:47;8.93;;;7.37;;
6207;SDS011;3137;51.550;7.060;2022-09-23T07:37:14;11.10;;;7.70;;
6207;SDS011;3137;51.550;7.060;2022-09-23T07:39:42;7.70;;;7.07;;
6207;SDS011;3137;51.550;7.060;2022-09-23T07:42:09;7.20;;;6.87;;
6207;SDS011;3137;51.550;7.060;2022-09-23T07:44:36;7.67;;;7.10;;
6207;SDS011;3137;51.550;7.060;2022-09-23T07:47:03;7.50;;;7.00;;
6207;SDS011;3137;51.550;7.060;2022-09-23T07:49:30;7.53;;;6.97;;
6207;SDS011;3137;51.550;7.060;2022-09-23T07:51:56;12.13;;;7.23;;
6207;SDS011;3137;51.550;7.060;2022-09-23T07:54:22;11.93;;;7.67;;
6207;SDS011;3137;51.550;7.060;2022-09-23T07:56:50;8.97;;;8.27;;
6207;SDS011;3137;51.550;7.060;2022-09-23T07:59:17;11.40;;;8.13;;
6207;SDS011;3137;51.550;7.060;2022-09-23T08:01:45;13.70;;;8.87;;
6207;SDS011;3137;51.550;7.060;2022-09-23T08:06:44;11.93;;;7.03;;
6207;SDS011;3137;51.550;7.060;2022-09-23T08:09:19;7.70;;;7.03;;
6207;SDS011;3137;51.550;7.060;2022-09-23T08:11:48;7.83;;;7.20;;
6207;SDS011;3137;51.550;7.060;2022-09-23T08:14:16;9.27;;;7.87;;
6207;SDS011;3137;51.550;7.060;2022-09-23T08:16:43;8.23;;;7.70;;
6207;SDS011;3137;51.550;7.060;2022-09-23T08:19:12;9.50;;;6.83;;
6207;SDS011;3137;51.550;7.060;2022-09-23T08:21:38;7.97;;;6.20;;
6207;SDS011;3137;51.550;7.060;2022-09-23T08:24:06;5.87;;;5.73;;
6207;SDS011;3137;51.550;7.060;2022-09-23T08:26:34;5.17;;;4.97;;
6207;SDS011;3137;51.550;7.060;2022-09-23T08:29:00;5.33;;;5.03;;
6207;SDS011;3137;51.550;7.060;2022-09-23T08:31:27;5.57;;;5.07;;
6207;SDS011;3137;51.550;7.060;2022-09-23T08:33:54;6.10;;;5.00;;
6207;SDS011;3137;51.550;7.060;2022-09-23T08:36:21;5.00;;;4.80;;
6207;SDS011;3137;51.550;7.060;2022-09-23T08:38:47;5.63;;;5.33;;
6207;SDS011;3137;51.550;7.060;2022-09-23T08:44:01;4.80;;;4.43;;
6207;SDS011;3137;51.550;7.060;2022-09-23T08:46:36;5.37;;;5.27;;
6207;SDS011;3137;51.550;7.060;2022-09-23T08:49:10;7.60;;;6.40;;
6207;SDS011;3137;51.550;7.060;2022-09-23T08:51:45;5.50;;;5.17;;
6207;SDS011;3137;51.550;7.060;2022-09-23T08:54:12;7.50;;;5.73;;
6207;SDS011;3137;51.550;7.060;2022-09-23T08:56:42;5.03;;;4.83;;
6207;SDS011;3137;51.550;7.060;2022-09-23T09:04:16;3.50;;;3.40;;
6207;SDS011;3137;51.550;7.060;2022-09-23T09:09:53;2.73;;;2.63;;
6207;SDS011;3137;51.550;7.060;2022-09-23T09:12:33;5.40;;;1.87;;
6207;SDS011;3137;51.550;7.060;2022-09-23T09:15:03;2.40;;;2.40;;
6207;SDS011;3137;51.550;7.060;2022-09-23T09:27:49;2.57;;;2.47;;
6207;SDS011;3137;51.550;7.060;2022-09-23T09:30:17;2.70;;;2.47;;
6207;SDS011;3137;51.550;7.060;2022-09-23T09:32:46;2.00;;;2.00;;
6207;SDS011;3137;51.550;7.060;2022-09-23T09:35:28;2.47;;;2.47;;
6207;SDS011;3137;51.550;7.060;2022-09-23T09:38:02;2.47;;;2.47;;
6207;SDS011;3137;51.550;7.060;2022-09-23T09:40:31;2.23;;;2.20;;
6207;SDS011;3137;51.550;7.060;2022-09-23T09:43:00;7.93;;;2.60;;
6207;SDS011;3137;51.550;7.060;2022-09-23T09:45:49;2.23;;;2.23;;
6207;SDS011;3137;51.550;7.060;2022-09-23T09:48:31;5.87;;;2.40;;
6207;SDS011;3137;51.550;7.060;2022-09-23T09:51:19;2.47;;;2.40;;
6207;SDS011;3137;51.550;7.060;2022-09-23T09:53:47;2.80;;;2.70;;
6207;SDS011;3137;51.550;7.060;2022-09-23T09:56:15;5.03;;;2.73;;
6207;SDS011;3137;51.550;7.060;2022-09-23T10:01:20;2.63;;;2.57;;
6207;SDS011;3137;51.550;7.060;2022-09-23T10:03:46;2.70;;;2.70;;
6207;SDS011;3137;51.550;7.060;2022-09-23T10:06:16;2.70;;;2.50;;
6207;SDS011;3137;51.550;7.060;2022-09-23T10:11:27;2.23;;;2.10;;
6207;SDS011;3137;51.550;7.060;2022-09-23T10:16:35;2.57;;;2.00;;
6207;SDS011;3137;51.550;7.060;2022-09-23T10:19:02;4.20;;;2.63;;
6207;SDS011;3137;51.550;7.060;2022-09-23T10:21:38;6.40;;;2.60;;
6207;SDS011;3137;51.550;7.060;2022-09-23T10:24:07;2.50;;;2.50;;
6207;SDS011;3137;51.550;7.060;2022-09-23T10:26:41;2.33;;;2.33;;
6207;SDS011;3137;51.550;7.060;2022-09-23T10:37:44;2.57;;;2.57;;
6207;SDS011;3137;51.550;7.060;2022-09-23T10:46:32;2.50;;;2.40;;
6207;SDS011;3137;51.550;7.060;2022-09-23T11:08:29;2.10;;;2.10;;
6207;SDS011;3137;51.550;7.060;2022-09-23T11:19:19;2.30;;;2.30;;
6207;SDS011;3137;51.550;7.060;2022-09-23T11:27:07;2.57;;;2.47;;
6207;SDS011;3137;51.550;7.060;2022-09-23T11:29:43;2.13;;;2.13;;
6207;SDS011;3137;51.550;7.060;2022-09-23T11:32:25;2.10;;;2.10;;
6207;SDS011;3137;51.550;7.060;2022-09-23T11:38:19;2.30;;;2.13;;
6207;SDS011;3137;51.550;7.060;2022-09-23T11:40:52;1.93;;;1.93;;
6207;SDS011;3137;51.550;7.060;2022-09-23T11:43:24;2.83;;;2.77;;
6207;SDS011;3137;51.550;7.060;2022-09-23T11:51:15;2.43;;;2.43;;
6207;SDS011;3137;51.550;7.060;2022-09-23T11:53:46;2.70;;;2.60;;
6207;SDS011;3137;51.550;7.060;2022-09-23T11:56:21;6.50;;;2.40;;
6207;SDS011;3137;51.550;7.060;2022-09-23T11:59:03;2.53;;;2.43;;
6207;SDS011;3137;51.550;7.060;2022-09-23T12:01:59;2.73;;;2.60;;
6207;SDS011;3137;51.550;7.060;2022-09-23T12:04:47;3.13;;;3.03;;
6207;SDS011;3137;51.550;7.060;2022-09-23T12:07:26;2.77;;;2.57;;
6207;SDS011;3137;51.550;7.060;2022-09-23T12:09:56;2.20;;;2.20;;
6207;SDS011;3137;51.550;7.060;2022-09-23T12:12:31;2.03;;;2.03;;
6207;SDS011;3137;51.550;7.060;2022-09-23T12:17:43;1.93;;;1.93;;
6207;SDS011;3137;51.550;7.060;2022-09-23T12:20:28;5.47;;;2.07;;
6207;SDS011;3137;51.550;7.060;2022-09-23T12:28:19;2.07;;;2.07;;
6207;SDS011;3137;51.550;7.060;2022-09-23T12:30:50;2.03;;;2.03;;
6207;SDS011;3137;51.550;7.060;2022-09-23T12:33:23;2.30;;;2.30;;
6207;SDS011;3137;51.550;7.060;2022-09-23T12:35:51;2.50;;;2.40;;
6207;SDS011;3137;51.550;7.060;2022-09-23T12:38:21;3.10;;;2.90;;
6207;SDS011;3137;51.550;7.060;2022-09-23T12:40:51;2.70;;;2.50;;
6207;SDS011;3137;51.550;7.060;2022-09-23T12:43:33;2.50;;;2.50;;
6207;SDS011;3137;51.550;7.060;2022-09-23T12:51:14;2.57;;;2.57;;
6207;SDS011;3137;51.550;7.060;2022-09-23T12:53:53;4.77;;;2.67;;
6207;SDS011;3137;51.550;7.060;2022-09-23T12:56:21;2.77;;;2.67;;
6207;SDS011;3137;51.550;7.060;2022-09-23T13:03:44;4.13;;;2.40;;
6207;SDS011;3137;51.550;7.060;2022-09-23T13:06:31;6.00;;;2.50;;
6207;SDS011;3137;51.550;7.060;2022-09-23T13:09:14;2.97;;;2.77;;
6207;SDS011;3137;51.550;7.060;2022-09-23T13:11:45;2.50;;;2.50;;
6207;SDS011;3137;51.550;7.060;2022-09-23T13:14:17;4.13;;;2.93;;
6207;SDS011;3137;51.550;7.060;2022-09-23T13:16:52;5.93;;;2.80;;
6207;SDS011;3137;51.550;7.060;2022-09-23T13:24:19;2.63;;;2.60;;
6207;SDS011;3137;51.550;7.060;2022-09-23T13:27:13;2.63;;;2.60;;
6207;SDS011;3137;51.550;7.060;2022-09-23T13:32:24;3.10;;;3.00;;
6207;SDS011;3137;51.550;7.060;2022-09-23T13:35:01;3.07;;;2.80;;
6207;SDS011;3137;51.550;7.060;2022-09-23T13:37:44;3.33;;;2.67;;
6207;SDS011;3137;51.550;7.060;2022-09-23T13:40:17;2.70;;;2.60;;
6207;SDS011;3137;51.550;7.060;2022-09-23T13:42:48;2.60;;;2.50;;
6207;SDS011;3137;51.550;7.060;2022-09-23T13:45:20;2.63;;;2.63;;
6207;SDS011;3137;51.550;7.060;2022-09-23T13:47:48;4.10;;;2.43;;
6207;SDS011;3137;51.550;7.060;2022-09-23T13:50:17;2.30;;;2.30;;
6207;SDS011;3137;51.550;7.060;2022-09-23T13:52:44;2.67;;;2.53;;
6207;SDS011;3137;51.550;7.060;2022-09-23T13:55:26;3.00;;;2.90;;
6207;SDS011;3137;51.550;7.060;2022-09-23T13:58:00;2.50;;;2.43;;
6207;SDS011;3137;51.550;7.060;2022-09-23T14:00:33;2.60;;;2.40;;
6207;SDS011;3137;51.550;7.060;2022-09-23T14:03:16;2.87;;;2.87;;
6207;SDS011;3137;51.550;7.060;2022-09-23T14:05:42;3.10;;;2.87;;
6207;SDS011;3137;51.550;7.060;2022-09-23T14:08:09;3.50;;;3.30;;
6207;SDS011;3137;51.550;7.060;2022-09-23T14:10:35;3.53;;;3.33;;
6207;SDS011;3137;51.550;7.060;2022-09-23T14:13:01;3.13;;;3.03;;
6207;SDS011;3137;51.550;7.060;2022-09-23T14:15:28;2.93;;;2.73;;
6207;SDS011;3137;51.550;7.060;2022-09-23T14:18:00;3.13;;;2.93;;
6207;SDS011;3137;51.550;7.060;2022-09-23T14:20:29;2.60;;;2.50;;
6207;SDS011;3137;51.550;7.060;2022-09-23T14:23:03;2.60;;;2.60;;
6207;SDS011;3137;51.550;7.060;2022-09-23T14:25:36;9.60;;;2.70;;
6207;SDS011;3137;51.550;7.060;2022-09-23T14:28:04;3.90;;;2.63;;
6207;SDS011;3137;51.550;7.060;2022-09-23T14:30:30;3.50;;;3.27;;
6207;SDS011;3137;51.550;7.060;2022-09-23T14:32:57;2.80;;;2.70;;
6207;SDS011;3137;51.550;7.060;2022-09-23T14:35:25;3.17;;;3.07;;
6207;SDS011;3137;51.550;7.060;2022-09-23T14:38:04;3.13;;;3.03;;
6207;SDS011;3137;51.550;7.060;2022-09-23T14:40:52;2.57;;;2.57;;
6207;SDS011;3137;51.550;7.060;2022-09-23T14:43:39;3.07;;;2.90;;
6207;SDS011;3137;51.550;7.060;2022-09-23T14:46:28;2.80;;;2.60;;
6207;SDS011;3137;51.550;7.060;2022-09-23T14:59:46;3.30;;;3.10;;
6207;SDS011;3137;51.550;7.060;2022-09-23T15:02:29;7.90;;;3.80;;
6207;SDS011;3137;51.550;7.060;2022-09-23T15:07:46;4.43;;;2.73;;
6207;SDS011;3137;51.550;7.060;2022-09-23T15:12:45;5.23;;;3.37;;
6207;SDS011;3137;51.550;7.060;2022-09-23T15:15:11;3.27;;;3.17;;
6207;SDS011;3137;51.550;7.060;2022-09-23T15:17:39;3.43;;;3.13;;
6207;SDS011;3137;51.550;7.060;2022-09-23T15:20:07;3.03;;;3.03;;
6207;SDS011;3137;51.550;7.060;2022-09-23T15:22:43;2.57;;;2.50;;
6207;SDS011;3137;51.550;7.060;2022-09-23T15:25:18;3.50;;;2.73;;
6207;SDS011;3137;51.550;7.060;2022-09-23T15:27:55;2.83;;;2.83;;
6207;SDS011;3137;51.550;7.060;2022-09-23T15:30:23;3.43;;;3.13;;
6207;SDS011;3137;51.550;7.060;2022-09-23T15:32:50;5.83;;;3.30;;
6207;SDS011;3137;51.550;7.060;2022-09-23T15:35:17;5.87;;;2.80;;
6207;SDS011;3137;51.550;7.060;2022-09-23T15:37:45;2.97;;;2.73;;
6207;SDS011;3137;51.550;7.060;2022-09-23T15:40:17;3.43;;;3.33;;
6207;SDS011;3137;51.550;7.060;2022-09-23T15:42:48;2.80;;;2.80;;
6207;SDS011;3137;51.550;7.060;2022-09-23T15:45:19;2.93;;;2.93;;
6207;SDS011;3137;51.550;7.060;2022-09-23T15:47:48;3.10;;;2.93;;
6207;SDS011;3137;51.550;7.060;2022-09-23T15:50:18;3.10;;;2.90;;
6207;SDS011;3137;51.550;7.060;2022-09-23T15:52:45;2.27;;;2.27;;
6207;SDS011;3137;51.550;7.060;2022-09-23T15:55:15;4.87;;;2.50;;
6207;SDS011;3137;51.550;7.060;2022-09-23T15:57:41;2.37;;;2.37;;
6207;SDS011;3137;51.550;7.060;2022-09-23T16:00:08;1.80;;;1.80;;
6207;SDS011;3137;51.550;7.060;2022-09-23T16:02:37;2.30;;;2.30;;
6207;SDS011;3137;51.550;7.060;2022-09-23T16:05:04;5.40;;;2.10;;
6207;SDS011;3137;51.550;7.060;2022-09-23T16:07:32;3.07;;;2.80;;
6207;SDS011;3137;51.550;7.060;2022-09-23T16:09:59;7.93;;;2.27;;
6207;SDS011;3137;51.550;7.060;2022-09-23T16:12:25;2.93;;;2.70;;
6207;SDS011;3137;51.550;7.060;2022-09-23T16:14:51;5.33;;;2.50;;
6207;SDS011;3137;51.550;7.060;2022-09-23T16:17:18;2.40;;;2.30;;
6207;SDS011;3137;51.550;7.060;2022-09-23T16:19:44;4.00;;;2.27;;
6207;SDS011;3137;51.550;7.060;2022-09-23T16:22:12;3.70;;;2.70;;
6207;SDS011;3137;51.550;7.060;2022-09-23T16:24:40;2.53;;;2.33;;
6207;SDS011;3137;51.550;7.060;2022-09-23T16:27:08;3.03;;;2.93;;
6207;SDS011;3137;51.550;7.060;2022-09-23T16:29:37;4.57;;;3.17;;
6207;SDS011;3137;51.550;7.060;2022-09-23T16:32:03;2.67;;;2.37;;
6207;SDS011;3137;51.550;7.060;2022-09-23T16:34:30;2.33;;;2.23;;
6207;SDS011;3137;51.550;7.060;2022-09-23T16:36:57;2.60;;;2.60;;
6207;SDS011;3137;51.550;7.060;2022-09-23T16:39:23;2.63;;;2.23;;
6207;SDS011;3137;51.550;7.060;2022-09-23T16:41:50;1.97;;;1.97;;
6207;SDS011;3137;51.550;7.060;2022-09-23T16:44:17;2.13;;;2.13;;
6207;SDS011;3137;51.550;7.060;2022-09-23T16:46:44;2.63;;;2.47;;
6207;SDS011;3137;51.550;7.060;2022-09-23T16:49:10;4.83;;;1.77;;
6207;SDS011;3137;51.550;7.060;2022-09-23T16:51:37;2.60;;;2.60;;
6207;SDS011;3137;51.550;7.060;2022-09-23T16:54:05;2.97;;;2.97;;
6207;SDS011;3137;51.550;7.060;2022-09-23T16:56:36;6.63;;;2.57;;
6207;SDS011;3137;51.550;7.060;2022-09-23T16:59:03;2.07;;;2.07;;
6207;SDS011;3137;51.550;7.060;2022-09-23T17:01:30;6.00;;;2.70;;
6207;SDS011;3137;51.550;7.060;2022-09-23T17:04:15;2.17;;;2.17;;
6207;SDS011;3137;51.550;7.060;2022-09-23T17:06:47;2.53;;;2.53;;
6207;SDS011;3137;51.550;7.060;2022-09-23T17:09:16;2.67;;;2.50;;
6207;SDS011;3137;51.550;7.060;2022-09-23T17:11:45;2.87;;;2.67;;
6207;SDS011;3137;51.550;7.060;2022-09-23T17:14:14;2.53;;;2.37;;
6207;SDS011;3137;51.550;7.060;2022-09-23T17:16:41;3.17;;;2.50;;
6207;SDS011;3137;51.550;7.060;2022-09-23T17:19:08;2.53;;;2.30;;
6207;SDS011;3137;51.550;7.060;2022-09-23T17:21:36;2.70;;;2.50;;
6207;SDS011;3137;51.550;7.060;2022-09-23T17:24:02;2.50;;;2.50;;
6207;SDS011;3137;51.550;7.060;2022-09-23T17:26:29;3.57;;;3.40;;
6207;SDS011;3137;51.550;7.060;2022-09-23T17:28:56;3.63;;;3.47;;
6207;SDS011;3137;51.550;7.060;2022-09-23T17:31:24;3.43;;;2.53;;
6207;SDS011;3137;51.550;7.060;2022-09-23T17:33:51;9.50;;;2.90;;
6207;SDS011;3137;51.550;7.060;2022-09-23T17:36:18;2.90;;;2.90;;
6207;SDS011;3137;51.550;7.060;2022-09-23T17:38:45;3.60;;;3.27;;
6207;SDS011;3137;51.550;7.060;2022-09-23T17:41:12;2.70;;;2.63;;
6207;SDS011;3137;51.550;7.060;2022-09-23T17:43:40;2.97;;;2.70;;
6207;SDS011;3137;51.550;7.060;2022-09-23T17:46:07;3.23;;;3.13;;
6207;SDS011;3137;51.550;7.060;2022-09-23T17:48:35;3.10;;;3.10;;
6207;SDS011;3137;51.550;7.060;2022-09-23T17:51:10;3.43;;;3.23;;
6207;SDS011;3137;51.550;7.060;2022-09-23T17:53:40;3.77;;;3.57;;
6207;SDS011;3137;51.550;7.060;2022-09-23T17:56:12;3.30;;;3.10;;
6207;SDS011;3137;51.550;7.060;2022-09-23T17:58:40;3.20;;;3.10;;
6207;SDS011;3137;51.550;7.060;2022-09-23T18:01:11;3.67;;;3.47;;
6207;SDS011;3137;51.550;7.060;2022-09-23T18:03:38;3.60;;;3.50;;
6207;SDS011;3137;51.550;7.060;2022-09-23T18:06:23;3.17;;;3.17;;
6207;SDS011;3137;51.550;7.060;2022-09-23T18:08:52;5.23;;;3.60;;
6207;SDS011;3137;51.550;7.060;2022-09-23T18:11:19;3.53;;;3.10;;
6207;SDS011;3137;51.550;7.060;2022-09-23T18:13:46;3.37;;;3.23;;
6207;SDS011;3137;51.550;7.060;2022-09-23T18:16:13;3.70;;;3.60;;
6207;SDS011;3137;51.550;7.060;2022-09-23T18:18:39;6.30;;;3.43;;
6207;SDS011;3137;51.550;7.060;2022-09-23T18:21:06;3.47;;;3.27;;
6207;SDS011;3137;51.550;7.060;2022-09-23T18:23:32;3.30;;;3.20;;